createdAt,value
2018-08-24T00:00:04.812Z,73.65
2018-08-24T00:02:31.581Z,73.92
2018-08-24T00:04:59.713Z,73.50
2018-08-24T00:07:26.203Z,73.79
2018-08-24T00:09:53.370Z,73.50
2018-08-24T00:12:22.193Z,73.76
2018-08-24T00:14:49.476Z,73.65
2018-08-24T00:17:17.090Z,73.69
2018-08-24T00:19:43.553Z,73.59
2018-08-24T00:22:10.391Z,74.18
2018-08-24T00:24:36.937Z,74.06
2018-08-24T00:27:03.515Z,74.74
2018-08-24T00:29:30.303Z,74.63
2018-08-24T00:31:56.803Z,75.14
2018-08-24T00:34:23.311Z,75.11
2018-08-24T00:36:49.797Z,75.05
2018-08-24T00:39:16.773Z,74.68
2018-08-24T00:41:43.255Z,74.88
2018-08-24T00:44:09.718Z,74.93
2018-08-24T00:46:36.497Z,75.21
2018-08-24T00:49:02.987Z,75.46
2018-08-24T00:51:29.537Z,75.37
2018-08-24T00:53:56.422Z,74.88
2018-08-24T00:56:22.910Z,75.02
2018-08-24T00:58:50.035Z,74.80
2018-08-24T01:01:17.090Z,75.35
2018-08-24T01:03:44.007Z,75.06
2018-08-24T01:06:10.501Z,75.52
2018-08-24T01:08:37.832Z,75.37
2018-08-24T01:11:04.740Z,75.69
2018-08-24T01:13:31.224Z,76.42
2018-08-24T01:15:57.722Z,77.46
2018-08-24T01:18:24.190Z,78.97
2018-08-24T01:20:50.959Z,80.83
2018-08-24T01:23:17.436Z,82.70
2018-08-24T01:25:43.913Z,83.69
2018-08-24T01:28:10.673Z,85.16
2018-08-24T01:30:37.138Z,84.05
2018-08-24T01:33:04.771Z,85.54
2018-08-24T01:35:31.269Z,87.87
2018-08-24T01:37:58.009Z,89.87
2018-08-24T01:40:24.457Z,90.77
2018-08-24T01:42:50.959Z,91.77
2018-08-24T01:45:18.404Z,92.50
2018-08-24T01:47:44.905Z,93.41
2018-08-24T01:50:11.413Z,94.22
2018-08-24T01:52:37.867Z,94.61
2018-08-24T01:55:04.670Z,94.43
2018-08-24T01:57:31.146Z,94.62
2018-08-24T01:59:57.613Z,95.18
2018-08-24T02:02:24.218Z,95.70
2018-08-24T02:04:51.868Z,95.38
2018-08-24T02:07:18.570Z,95.99
2018-08-24T02:09:45.871Z,95.97
2018-08-24T02:12:12.347Z,96.26
2018-08-24T02:14:39.115Z,96.38
2018-08-24T02:17:05.579Z,96.17
2018-08-24T02:19:32.066Z,96.37
2018-08-24T02:21:58.819Z,96.09
2018-08-24T02:24:25.265Z,95.73
2018-08-24T02:26:51.729Z,95.38
2018-08-24T02:29:18.539Z,95.14
2018-08-24T02:31:45.019Z,94.75
2018-08-24T02:34:11.504Z,94.45
2018-08-24T02:36:37.999Z,94.48
2018-08-24T02:39:04.790Z,94.17
2018-08-24T02:41:31.251Z,93.49
2018-08-24T02:43:57.738Z,93.67
2018-08-24T02:46:24.194Z,92.98
2018-08-24T02:48:50.981Z,93.24
2018-08-24T02:51:17.485Z,92.45
2018-08-24T02:53:43.984Z,92.36
2018-08-24T02:56:10.739Z,92.34
2018-08-24T02:58:37.551Z,92.50
2018-08-24T03:01:04.015Z,92.45
2018-08-24T03:03:30.485Z,92.31
2018-08-24T03:05:57.249Z,92.58
2018-08-24T03:08:23.850Z,92.61
2018-08-24T03:10:50.303Z,92.07
2018-08-24T03:13:17.069Z,91.81
2018-08-24T03:15:43.526Z,91.48
2018-08-24T03:18:10.053Z,91.45
2018-08-24T03:20:36.561Z,91.94
2018-08-24T03:23:03.309Z,91.81
2018-08-24T03:25:29.955Z,91.75
2018-08-24T03:27:56.437Z,91.79
2018-08-24T03:30:22.899Z,91.76
2018-08-24T03:32:50.158Z,92.05
2018-08-24T03:35:16.716Z,91.86
2018-08-24T03:37:43.210Z,91.83
2018-08-24T03:40:10.085Z,91.81
2018-08-24T03:42:36.590Z,91.45
2018-08-24T03:45:03.076Z,91.24
2018-08-24T03:47:30.115Z,91.72
2018-08-24T03:49:56.586Z,91.47
2018-08-24T03:52:23.053Z,91.98
2018-08-24T03:54:50.460Z,91.04
2018-08-24T03:57:16.933Z,90.82
2018-08-24T03:59:43.432Z,90.95
2018-08-24T04:02:09.930Z,90.86
2018-08-24T04:04:37.698Z,91.12
2018-08-24T04:07:04.161Z,90.55
2018-08-24T04:09:30.616Z,90.64
2018-08-24T04:11:57.092Z,91.25
2018-08-24T04:14:23.850Z,90.82
2018-08-24T04:16:50.748Z,91.26
2018-08-24T04:19:17.310Z,90.46
2018-08-24T04:21:43.862Z,91.01
2018-08-24T04:24:10.659Z,91.32
2018-08-24T04:26:37.158Z,91.56
2018-08-24T04:29:03.614Z,91.79
2018-08-24T04:31:30.416Z,91.22
2018-08-24T04:33:56.881Z,90.92
2018-08-24T04:36:23.358Z,91.21
2018-08-24T04:38:50.129Z,91.37
2018-08-24T04:41:16.681Z,91.33
2018-08-24T04:43:43.169Z,91.23
2018-08-24T04:46:09.913Z,90.96
2018-08-24T04:48:36.397Z,90.92
2018-08-24T04:51:02.890Z,91.20
2018-08-24T04:53:29.726Z,91.41
2018-08-24T04:55:56.191Z,91.36
2018-08-24T04:58:22.780Z,91.27
2018-08-24T05:00:49.525Z,91.36
2018-08-24T05:03:16.034Z,91.27
2018-08-24T05:05:42.574Z,91.38
2018-08-24T05:08:09.305Z,91.46
2018-08-24T05:10:35.818Z,91.97
2018-08-24T05:13:02.281Z,92.07
2018-08-24T05:15:29.038Z,91.55
2018-08-24T05:17:55.504Z,91.64
2018-08-24T05:20:24.110Z,91.71
2018-08-24T05:22:51.002Z,90.61
2018-08-24T05:25:17.495Z,90.30
2018-08-24T05:27:44.850Z,90.24
2018-08-24T05:30:11.589Z,90.85
2018-08-24T05:32:38.087Z,90.76
2018-08-24T05:35:04.666Z,90.33
2018-08-24T05:37:31.728Z,90.39
2018-08-24T05:39:58.277Z,89.88
2018-08-24T05:42:24.785Z,89.80
2018-08-24T05:44:51.631Z,90.48
2018-08-24T05:47:18.133Z,90.44
2018-08-24T05:49:44.625Z,90.45
2018-08-24T05:52:11.425Z,89.72
2018-08-24T05:54:37.930Z,90.10
2018-08-24T05:57:04.422Z,89.23
2018-08-24T05:59:31.182Z,90.11
2018-08-24T06:01:58.663Z,89.87
2018-08-24T06:04:25.173Z,90.17
2018-08-24T06:06:51.950Z,90.00
2018-08-24T06:09:18.437Z,89.63
2018-08-24T06:11:44.911Z,89.46
2018-08-24T06:14:12.615Z,89.66
2018-08-24T06:16:39.081Z,88.95
2018-08-24T06:19:06.540Z,89.19
2018-08-24T06:21:33.360Z,87.88
2018-08-24T06:23:59.861Z,88.00
2018-08-24T06:26:26.344Z,87.72
2018-08-24T06:28:53.113Z,87.25
2018-08-24T06:31:19.625Z,86.90
2018-08-24T06:33:46.135Z,87.29
2018-08-24T06:36:12.905Z,87.51
2018-08-24T06:38:39.365Z,86.91
2018-08-24T06:41:05.830Z,86.96
2018-08-24T06:43:32.588Z,86.49
2018-08-24T06:46:00.943Z,87.08
2018-08-24T06:48:27.418Z,86.83
2018-08-24T06:50:54.260Z,87.09
2018-08-24T06:53:20.899Z,87.37
2018-08-24T06:55:47.339Z,86.99
2018-08-24T06:58:15.169Z,87.55
2018-08-24T07:00:41.710Z,87.08
2018-08-24T07:03:08.699Z,87.18
2018-08-24T07:05:36.195Z,87.39
2018-08-24T07:08:02.789Z,87.39
2018-08-24T07:10:29.249Z,87.25
2018-08-24T07:12:56.088Z,87.23
2018-08-24T07:15:22.630Z,87.54
2018-08-24T07:17:49.132Z,86.75
2018-08-24T07:20:15.893Z,85.41
2018-08-24T07:22:42.362Z,85.43
2018-08-24T07:25:08.847Z,84.64
2018-08-24T07:27:36.495Z,83.50
2018-08-24T07:30:03.048Z,83.69
2018-08-24T07:32:29.565Z,82.80
2018-08-24T07:34:56.367Z,81.80
2018-08-24T07:37:23.915Z,82.48
2018-08-24T07:39:50.394Z,83.06
2018-08-24T07:42:16.900Z,81.99
2018-08-24T07:44:43.410Z,81.76
2018-08-24T07:47:10.227Z,82.42
2018-08-24T07:49:36.719Z,82.18
2018-08-24T07:52:03.265Z,81.14
2018-08-24T07:54:30.054Z,82.18
2018-08-24T07:56:56.589Z,81.02
2018-08-24T07:59:24.822Z,80.03
2018-08-24T08:01:52.263Z,79.60
2018-08-24T08:04:18.811Z,80.58
2018-08-24T08:06:45.303Z,80.76
2018-08-24T08:09:13.572Z,80.57
2018-08-24T08:11:41.517Z,80.44
2018-08-24T08:14:08.302Z,79.80
2018-08-24T08:16:39.731Z,80.44
2018-08-24T08:19:07.429Z,80.39
2018-08-24T08:21:33.972Z,80.30
2018-08-24T08:24:00.788Z,80.85
2018-08-24T08:26:27.283Z,81.00
2018-08-24T08:28:53.797Z,80.96
2018-08-24T08:31:20.568Z,79.75
2018-08-24T08:33:48.053Z,80.18
2018-08-24T08:36:14.577Z,78.47
2018-08-24T08:38:41.317Z,79.98
2018-08-24T08:41:07.820Z,79.77
2018-08-24T08:43:34.315Z,79.41
2018-08-24T08:46:03.254Z,79.80
2018-08-24T08:48:29.794Z,79.82
2018-08-24T08:50:56.244Z,79.03
2018-08-24T08:53:23.067Z,79.02
2018-08-24T08:55:49.578Z,79.46
2018-08-24T08:58:16.132Z,79.41
2018-08-24T09:00:42.928Z,77.08
2018-08-24T09:03:09.387Z,77.37
2018-08-24T09:05:37.065Z,80.37
2018-08-24T09:08:04.620Z,83.78
2018-08-24T09:10:31.090Z,86.16
2018-08-24T09:12:57.690Z,88.90
2018-08-24T09:15:25.063Z,89.86
2018-08-24T09:17:51.555Z,90.95
2018-08-24T09:20:18.066Z,91.94
2018-08-24T09:22:47.877Z,92.31
2018-08-24T09:25:14.387Z,92.82
2018-08-24T09:27:40.856Z,93.74
2018-08-24T09:30:08.451Z,93.78
2018-08-24T09:32:35.070Z,93.89
2018-08-24T09:35:01.523Z,92.95
2018-08-24T09:37:29.239Z,93.19
2018-08-24T09:39:55.709Z,93.28
2018-08-24T09:42:22.373Z,92.46
2018-08-24T09:44:50.143Z,91.96
2018-08-24T09:47:16.645Z,92.61
2018-08-24T09:56:38.047Z,90.59
2018-08-24T09:59:04.990Z,91.99
2018-08-24T10:01:31.464Z,89.48
2018-08-24T10:03:58.094Z,89.58
2018-08-24T10:06:24.997Z,89.58
2018-08-24T10:08:51.480Z,88.14
2018-08-24T10:11:18.009Z,87.91
2018-08-24T10:13:46.054Z,87.64
2018-08-24T10:16:12.567Z,86.59
2018-08-24T10:18:39.140Z,86.36
2018-08-24T10:21:05.914Z,86.54
2018-08-24T10:23:33.657Z,84.56
2018-08-24T10:26:00.699Z,83.20
2018-08-24T10:28:27.506Z,80.06
2018-08-24T10:30:55.133Z,80.75
2018-08-24T10:33:21.635Z,79.24
2018-08-24T10:35:49.628Z,79.81
2018-08-24T10:38:17.038Z,77.36
2018-08-24T10:40:43.516Z,75.41
2018-08-24T10:43:11.301Z,77.20
2018-08-24T10:45:37.797Z,74.55
2018-08-24T10:48:04.289Z,73.81
2018-08-24T10:50:32.336Z,72.89
2018-08-24T10:53:06.161Z,70.55
2018-08-24T10:55:49.830Z,68.97
2018-08-24T10:58:16.453Z,70.24
2018-08-24T11:00:42.987Z,66.93
2018-08-24T11:03:09.830Z,68.11
2018-08-24T11:05:36.423Z,67.72
2018-08-24T11:08:03.139Z,64.81
2018-08-24T11:10:30.793Z,66.20
2018-08-24T11:12:57.324Z,66.47
2018-08-24T11:15:23.865Z,66.73
2018-08-24T11:17:50.785Z,66.69
2018-08-24T11:20:17.914Z,64.95
2018-08-24T11:22:44.466Z,63.74
2018-08-24T11:25:12.125Z,58.98
2018-08-24T11:27:38.591Z,55.37
2018-08-24T11:30:05.330Z,53.38
2018-08-24T11:35:10.898Z,49.76
2018-08-24T11:37:37.824Z,50.63
2018-08-24T11:40:04.462Z,50.52
2018-08-24T11:42:31.538Z,49.73
2018-08-24T11:44:58.302Z,52.52
2018-08-24T11:47:24.851Z,50.31
2018-08-24T11:49:51.910Z,49.64
2018-08-24T11:52:18.736Z,49.88
2018-08-24T11:54:47.297Z,49.91
2018-08-24T11:57:13.765Z,48.48
2018-08-24T11:59:41.294Z,47.81
2018-08-24T12:02:07.905Z,48.24
2018-08-24T12:04:34.504Z,45.75
2018-08-24T12:07:01.393Z,44.68
2018-08-24T12:09:29.967Z,43.23
2018-08-24T12:14:30.744Z,45.21
2018-08-24T12:22:08.716Z,44.63
2018-08-24T12:27:08.197Z,45.42
2018-08-24T12:29:35.050Z,43.42
2018-08-24T12:32:06.148Z,44.32
2018-08-24T12:34:36.854Z,43.17
2018-08-24T12:37:04.179Z,45.15
2018-08-24T12:39:32.382Z,45.43
2018-08-24T12:42:05.725Z,45.92
2018-08-24T12:44:33.068Z,46.83
2018-08-24T12:49:36.774Z,45.46
2018-08-24T12:52:05.132Z,43.43
2018-08-24T12:57:11.701Z,43.37
2018-08-24T12:59:39.956Z,41.68
2018-08-24T13:02:08.674Z,39.59
2018-08-24T13:04:37.302Z,39.47
2018-08-24T13:07:03.801Z,40.12
2018-08-24T13:09:30.432Z,39.31
2018-08-24T13:12:01.677Z,40.17
2018-08-24T13:19:33.839Z,38.78
2018-08-24T13:22:04.499Z,39.46
2018-08-24T13:24:31.739Z,39.14
2018-08-24T13:26:59.378Z,39.24
2018-08-24T13:29:26.745Z,39.25
2018-08-24T13:31:57.237Z,38.06
2018-08-24T13:34:25.557Z,38.71
2018-08-24T13:36:53.381Z,39.07
2018-08-24T13:39:19.999Z,38.76
2018-08-24T13:41:48.529Z,39.12
2018-08-24T13:44:15.795Z,38.69
2018-08-24T13:49:17.505Z,40.79
2018-08-24T13:51:45.745Z,39.71
2018-08-24T13:54:12.998Z,41.01
2018-08-24T13:56:39.920Z,41.45
2018-08-24T13:59:06.686Z,40.87
2018-08-24T14:01:33.726Z,41.43
2018-08-24T14:04:02.402Z,40.66
2018-08-24T14:06:29.046Z,40.88
2018-08-24T14:08:55.585Z,40.52
2018-08-24T14:13:54.729Z,41.41
2018-08-24T14:16:21.899Z,41.21
2018-08-24T14:21:23.390Z,40.32
2018-08-24T14:23:53.492Z,41.06
2018-08-24T14:26:24.843Z,41.12
2018-08-24T14:28:51.338Z,40.00
2018-08-24T14:31:18.176Z,39.14
2018-08-24T14:33:51.770Z,40.04
2018-08-24T14:36:22.666Z,39.53
2018-08-24T14:38:51.394Z,39.89
2018-08-24T14:41:20.589Z,39.97
2018-08-24T14:43:47.457Z,39.07
2018-08-24T14:46:14.513Z,38.10
2018-08-24T14:48:42.618Z,38.64
2018-08-24T14:51:09.286Z,38.91
2018-08-24T14:53:36.074Z,38.78
2018-08-24T14:56:03.533Z,37.76
2018-08-24T14:58:32.210Z,38.08
2018-08-24T15:01:00.314Z,37.63
2018-08-24T15:03:29.119Z,38.00
2018-08-24T15:05:56.701Z,37.75
2018-08-24T15:08:23.622Z,38.49
2018-08-24T15:10:50.252Z,37.46
2018-08-24T15:13:17.524Z,36.96
2018-08-24T15:15:46.033Z,36.63
2018-08-24T15:18:12.679Z,37.79
2018-08-24T15:20:40.212Z,37.38
2018-08-24T15:23:07.373Z,37.87
2018-08-24T15:25:33.961Z,37.23
2018-08-24T15:28:00.414Z,35.34
2018-08-24T15:30:28.034Z,36.15
2018-08-24T15:32:54.527Z,36.87
2018-08-24T15:35:21.509Z,37.95
2018-08-24T15:37:48.476Z,39.29
2018-08-24T15:40:15.423Z,38.98
2018-08-24T15:42:42.070Z,39.05
2018-08-24T15:45:09.077Z,38.77
2018-08-24T15:47:35.751Z,39.31
2018-08-24T15:50:02.249Z,38.85
2018-08-24T15:52:29.325Z,39.17
2018-08-24T15:54:55.789Z,39.34
2018-08-24T15:57:22.280Z,40.33
2018-08-24T15:59:49.137Z,39.92
2018-08-24T16:02:15.632Z,40.83
2018-08-24T16:07:15.397Z,41.60
2018-08-24T16:09:43.992Z,42.34
2018-08-24T16:12:10.703Z,42.66
2018-08-24T16:14:37.699Z,43.62
2018-08-24T16:17:04.624Z,43.20
2018-08-24T16:19:31.256Z,43.68
2018-08-24T16:21:59.141Z,43.19
2018-08-24T16:24:25.695Z,43.48
2018-08-24T16:26:52.243Z,43.52
2018-08-24T16:29:19.227Z,44.13
2018-08-24T16:31:45.727Z,44.43
2018-08-24T16:34:12.213Z,44.52
2018-08-24T16:36:39.332Z,43.91
2018-08-24T16:39:05.799Z,44.51
2018-08-24T16:41:32.278Z,44.54
2018-08-24T16:43:59.502Z,45.15
2018-08-24T16:46:25.983Z,45.50
2018-08-24T16:48:57.252Z,45.62
2018-08-24T16:51:26.197Z,45.79
2018-08-24T16:53:52.971Z,45.90
2018-08-24T16:56:19.984Z,46.11
2018-08-24T16:58:47.652Z,46.50
2018-08-24T17:01:16.009Z,46.10
2018-08-24T17:03:43.565Z,46.59
2018-08-24T17:06:19.067Z,46.65
2018-08-24T17:08:47.663Z,46.70
2018-08-24T17:11:21.482Z,46.82
2018-08-24T17:13:49.766Z,46.76
2018-08-24T17:16:16.620Z,47.26
2018-08-24T17:18:43.576Z,47.10
2018-08-24T17:21:10.118Z,47.08
2018-08-24T17:23:36.784Z,47.34
2018-08-24T17:26:04.220Z,47.40
2018-08-24T17:28:30.840Z,47.71
2018-08-24T17:30:58.666Z,48.31
2018-08-24T17:33:26.987Z,47.70
2018-08-24T17:35:54.640Z,47.40
2018-08-24T17:38:25.685Z,47.70
2018-08-24T17:58:32.982Z,48.07
2018-08-24T18:01:00.519Z,48.09
2018-08-24T18:03:28.365Z,48.15
2018-08-24T18:05:55.905Z,48.17
2018-08-24T18:08:22.600Z,48.58
2018-08-24T18:10:49.441Z,49.10
2018-08-24T18:13:15.999Z,49.59
2018-08-24T18:15:42.616Z,48.76
2018-08-24T18:18:09.419Z,49.22
2018-08-24T18:20:36.016Z,48.98
2018-08-24T18:23:02.573Z,49.78
2018-08-24T18:25:29.371Z,49.29
2018-08-24T18:27:56.695Z,49.23
2018-08-24T18:30:30.202Z,50.00
2018-08-24T18:32:57.430Z,49.73
2018-08-24T18:35:23.895Z,49.96
2018-08-24T18:37:50.391Z,50.49
2018-08-24T18:40:18.250Z,50.22
2018-08-24T18:42:46.853Z,50.67
2018-08-24T18:45:14.768Z,50.63
2018-08-24T18:47:44.586Z,51.47
2018-08-24T18:50:12.248Z,52.12
2018-08-24T18:52:38.704Z,52.30
2018-08-24T18:55:05.632Z,52.54
2018-08-24T18:57:32.189Z,52.81
2018-08-24T18:59:58.662Z,53.57
2018-08-24T19:02:25.645Z,53.50
2018-08-24T19:04:52.517Z,54.31
2018-08-24T19:07:20.237Z,53.59
2018-08-24T19:09:47.399Z,53.72
2018-08-24T19:12:14.049Z,53.86
2018-08-24T19:14:41.588Z,54.11
2018-08-24T19:17:09.345Z,53.99
2018-08-24T19:19:35.811Z,54.02
2018-08-24T19:22:05.546Z,54.05
2018-08-24T19:24:32.371Z,54.36
2018-08-24T19:26:58.898Z,54.56
2018-08-24T19:29:25.451Z,54.66
2018-08-24T19:31:53.528Z,54.97
2018-08-24T19:34:20.191Z,54.66
2018-08-24T19:36:47.293Z,55.47
2018-08-24T19:39:14.248Z,55.04
2018-08-24T19:41:42.240Z,55.08
2018-08-24T19:44:09.641Z,55.02
2018-08-24T19:46:39.098Z,55.19
2018-08-24T19:49:05.718Z,54.81
2018-08-24T19:51:32.203Z,55.45
2018-08-24T19:53:58.987Z,54.85
2018-08-24T19:56:25.502Z,55.32
2018-08-24T19:58:52.033Z,55.34
2018-08-24T20:01:18.810Z,55.07
2018-08-24T20:03:45.313Z,55.46
2018-08-24T20:06:12.562Z,56.11
2018-08-24T20:08:39.313Z,56.09
2018-08-24T20:11:05.824Z,56.90
2018-08-24T20:13:32.363Z,56.27
2018-08-24T20:16:01.116Z,56.50
2018-08-24T20:18:27.629Z,56.04
2018-08-24T20:20:54.338Z,57.12
2018-08-24T20:23:22.059Z,56.31
2018-08-24T20:25:48.514Z,55.82
2018-08-24T20:28:16.692Z,56.06
2018-08-24T20:30:45.305Z,56.45
2018-08-24T20:33:11.778Z,56.68
2018-08-24T20:35:38.241Z,56.70
2018-08-24T20:38:04.984Z,56.22
2018-08-24T20:40:31.477Z,57.40
2018-08-24T20:42:57.936Z,56.56
2018-08-24T20:45:25.380Z,57.58
2018-08-24T20:47:51.863Z,57.48
2018-08-24T20:50:18.351Z,57.93
2018-08-24T20:52:45.250Z,57.25
2018-08-24T20:55:12.527Z,58.10
2018-08-24T20:57:40.657Z,57.80
2018-08-24T21:00:07.568Z,57.66
2018-08-24T21:02:34.100Z,57.64
2018-08-24T21:05:00.563Z,58.21
2018-08-24T21:07:29.015Z,57.81
2018-08-24T21:09:56.055Z,58.08
2018-08-24T21:12:22.600Z,58.53
2018-08-24T21:14:49.667Z,59.60
2018-08-24T21:17:16.141Z,61.04
2018-08-24T21:19:42.630Z,61.11
2018-08-24T21:22:09.638Z,61.90
2018-08-24T21:24:40.443Z,61.99
2018-08-24T21:27:07.138Z,63.78
2018-08-24T21:29:33.974Z,64.71
2018-08-24T21:32:00.616Z,65.75
2018-08-24T21:34:27.150Z,66.04
2018-08-24T21:36:53.921Z,66.50
2018-08-24T21:39:21.384Z,66.45
2018-08-24T21:41:47.904Z,66.78
2018-08-24T21:44:14.693Z,66.88
2018-08-24T21:46:41.170Z,65.95
2018-08-24T21:49:07.618Z,66.73
2018-08-24T21:51:34.397Z,64.68
2018-08-24T21:54:00.880Z,63.18
2018-08-24T21:56:27.358Z,61.29
2018-08-24T21:58:54.198Z,59.23
2018-08-24T22:01:20.677Z,58.59
2018-08-24T22:03:47.129Z,58.31
2018-08-24T22:06:13.911Z,57.78
2018-08-24T22:08:40.396Z,57.88
2018-08-24T22:11:06.877Z,57.08
2018-08-24T22:13:33.678Z,57.65
2018-08-24T22:16:00.122Z,56.90
2018-08-24T22:18:26.595Z,56.42
2018-08-24T22:20:54.183Z,56.28
2018-08-24T22:23:20.641Z,56.57
2018-08-24T22:25:47.255Z,56.59
2018-08-24T22:28:14.052Z,56.03
2018-08-24T22:30:42.506Z,56.55
2018-08-24T22:33:10.858Z,55.63
2018-08-24T22:35:38.864Z,56.63
2018-08-24T22:38:10.209Z,56.30
2018-08-24T22:40:58.706Z,56.41
2018-08-24T22:43:25.550Z,55.96
2018-08-24T22:45:52.048Z,56.10
2018-08-24T22:48:19.118Z,56.21
2018-08-24T22:50:45.598Z,56.25
2018-08-24T22:53:12.084Z,56.69
2018-08-24T22:55:38.837Z,56.58
2018-08-24T22:58:06.342Z,56.66
2018-08-24T23:00:32.800Z,55.95
2018-08-24T23:02:59.273Z,56.26
2018-08-24T23:05:26.041Z,56.59
2018-08-24T23:07:53.146Z,55.41
2018-08-24T23:10:21.981Z,55.74
2018-08-24T23:19:43.659Z,55.57
2018-08-24T23:22:10.082Z,55.01
2018-08-24T23:24:37.690Z,54.61
2018-08-24T23:27:06.814Z,54.71
2018-08-24T23:29:33.423Z,55.06
2018-08-24T23:31:59.896Z,54.61
2018-08-24T23:34:26.889Z,55.20
2018-08-24T23:36:53.357Z,55.47
2018-08-24T23:39:19.839Z,55.22
2018-08-24T23:41:49.679Z,55.38
2018-08-24T23:44:16.726Z,55.49
2018-08-24T23:46:43.206Z,55.65
2018-08-24T23:49:09.960Z,56.23
2018-08-24T23:51:36.410Z,55.14
2018-08-24T23:54:03.849Z,55.91
2018-08-24T23:56:30.318Z,55.80
2018-08-24T23:58:57.121Z,55.88
